Time;durP1;ratioP1;P1;durP2;ratioP2;P2;SDS_P1;SDS_P2;PMS_P1;PMS_P2;Temp;Humidity;BMP_temperature;BMP_pressure;BME280_temperature;BME280_humidity;BME280_pressure;Samples;Min_cycle;Max_cycle;Signal;HPM_P1;HPM_P2
2023/08/07 00:01:20;;;;;;;1.20;1.08;;;23.50;69.90;;;;;;6121473;28;81511;-65
2023/08/07 00:04:20;;;;;;;1.92;1.20;;;23.40;69.90;;;;;;6120000;28;80289;-64
2023/08/07 00:07:21;;;;;;;1.30;1.20;;;23.40;69.90;;;;;;6111160;28;80991;-65
2023/08/07 00:10:21;;;;;;;2.00;1.20;;;23.40;70.00;;;;;;6106008;28;81410;-49
2023/08/07 00:13:22;;;;;;;2.97;1.40;;;23.40;69.90;;;;;;6119628;28;81456;-53
2023/08/07 00:16:22;;;;;;;1.58;1.10;;;23.40;69.90;;;;;;6124904;28;81571;-50
2023/08/07 00:19:23;;;;;;;1.88;1.25;;;23.40;69.90;;;;;;6109303;28;80812;-49
2023/08/07 00:22:25;;;;;;;1.60;1.30;;;23.40;70.00;;;;;;6106367;28;81524;-51
2023/08/07 00:25:25;;;;;;;1.35;1.23;;;23.40;70.00;;;;;;6113829;28;80232;-53
2023/08/07 00:28:26;;;;;;;0.95;0.90;;;23.40;69.90;;;;;;6128606;28;81281;-51
2023/08/07 00:31:30;;;;;;;1.35;1.10;;;23.30;70.00;;;;;;6129686;28;80218;-54
2023/08/07 00:34:31;;;;;;;3.08;1.40;;;23.40;70.10;;;;;;6145419;28;82912;-50
2023/08/07 00:37:31;;;;;;;1.17;1.08;;;23.30;69.80;;;;;;6174004;28;81631;-53
2023/08/07 00:40:32;;;;;;;1.38;1.25;;;23.30;70.60;;;;;;6128849;28;80573;-53
2023/08/07 00:43:32;;;;;;;1.95;1.27;;;23.30;69.70;;;;;;6128071;28;80665;-51
2023/08/07 00:46:33;;;;;;;2.75;1.40;;;23.30;69.80;;;;;;6126948;28;81737;-52
2023/08/07 00:49:33;;;;;;;1.95;1.33;;;23.40;69.90;;;;;;6118715;28;82142;-70
2023/08/07 00:52:34;;;;;;;1.95;1.15;;;23.40;69.90;;;;;;6141890;28;80568;-71
2023/08/07 00:55:34;;;;;;;1.25;1.17;;;23.40;69.80;;;;;;6141044;28;83055;-70
2023/08/07 00:58:35;;;;;;;1.83;1.65;;;23.30;69.70;;;;;;6126354;28;83494;-70
2023/08/07 01:01:37;;;;;;;1.20;1.10;;;23.40;69.80;;;;;;6128737;28;80468;-71
2023/08/07 01:04:37;;;;;;;1.60;1.30;;;23.40;69.70;;;;;;6118380;28;80113;-71
2023/08/07 01:07:38;;;;;;;1.45;1.35;;;23.30;69.60;;;;;;6113216;28;80669;-70
2023/08/07 01:10:38;;;;;;;4.03;1.40;;;23.40;69.60;;;;;;6108531;28;80654;-71
2023/08/07 01:13:39;;;;;;;0.98;0.98;;;23.40;69.60;;;;;;6120947;28;81670;-70
2023/08/07 01:16:39;;;;;;;4.78;1.42;;;23.30;69.50;;;;;;6129930;28;81863;-69
2023/08/07 01:19:41;;;;;;;4.93;1.50;;;23.30;69.50;;;;;;6124108;28;80517;-69
2023/08/07 01:22:41;;;;;;;2.78;1.35;;;23.40;69.60;;;;;;6117522;28;82424;-71
2023/08/07 01:25:42;;;;;;;1.30;1.20;;;23.40;69.60;;;;;;6105586;28;80470;-51
2023/08/07 01:28:43;;;;;;;3.72;1.50;;;23.40;69.50;;;;;;6105514;28;80670;-54
2023/08/07 01:31:43;;;;;;;1.20;1.10;;;23.40;69.40;;;;;;6113916;28;82964;-51
2023/08/07 01:34:43;;;;;;;2.35;1.55;;;23.40;69.50;;;;;;6126388;28;83402;-53
2023/08/07 01:37:44;;;;;;;3.85;1.45;;;23.40;69.50;;;;;;6111502;28;80878;-54
2023/08/07 01:40:45;;;;;;;1.83;1.50;;;23.40;69.50;;;;;;6104994;28;81422;-53
2023/08/07 01:43:46;;;;;;;1.88;1.27;;;23.30;69.40;;;;;;6120956;28;83593;-66
2023/08/07 01:46:46;;;;;;;9.18;1.40;;;23.30;69.40;;;;;;6106060;28;81428;-66
2023/08/07 01:49:47;;;;;;;1.92;1.30;;;23.40;69.50;;;;;;6106335;28;80956;-66
2023/08/07 01:52:47;;;;;;;1.48;1.38;;;23.40;69.60;;;;;;6123802;28;80405;-63
2023/08/07 01:55:48;;;;;;;1.60;1.50;;;23.50;69.40;;;;;;6126649;28;81582;-65
2023/08/07 01:58:48;;;;;;;1.65;1.38;;;23.40;69.30;;;;;;6125080;28;83431;-63
2023/08/07 02:01:49;;;;;;;2.67;1.60;;;23.40;69.30;;;;;;6126901;28;82609;-67
2023/08/07 02:04:49;;;;;;;3.22;1.67;;;23.40;69.40;;;;;;6124194;28;80123;-64
2023/08/07 02:07:50;;;;;;;2.97;1.65;;;23.40;69.40;;;;;;6146894;28;81751;-70
2023/08/07 02:10:50;;;;;;;1.70;1.55;;;23.40;69.40;;;;;;6135792;28;80634;-68
2023/08/07 02:13:51;;;;;;;4.70;1.83;;;23.40;69.30;;;;;;6121417;28;80284;-70
2023/08/07 02:16:51;;;;;;;2.67;1.80;;;23.30;69.30;;;;;;6131680;28;83265;-68
2023/08/07 02:19:52;;;;;;;1.85;1.42;;;23.30;69.50;;;;;;6111617;28;80862;-64
2023/08/07 02:22:53;;;;;;;3.65;1.60;;;23.30;69.30;;;;;;6111508;28;81441;-64
2023/08/07 02:25:54;;;;;;;3.55;1.50;;;23.30;69.10;;;;;;6126410;28;83392;-63
2023/08/07 02:28:55;;;;;;;2.63;1.75;;;23.40;69.30;;;;;;6112701;28;80531;-64
2023/08/07 02:31:55;;;;;;;4.00;1.40;;;23.30;69.20;;;;;;6131683;28;80804;-65
2023/08/07 02:34:56;;;;;;;3.50;1.60;;;23.30;69.20;;;;;;6120351;28;80864;-63
2023/08/07 02:37:58;;;;;;;2.25;1.55;;;23.30;69.30;;;;;;6155962;28;80621;-71
2023/08/07 02:40:59;;;;;;;4.32;1.55;;;23.30;69.30;;;;;;6158278;28;85495;-63
2023/08/07 02:43:59;;;;;;;3.90;1.95;;;23.30;69.30;;;;;;6133627;28;81917;-70
2023/08/07 02:47:00;;;;;;;1.65;1.50;;;23.30;69.30;;;;;;6134066;28;81429;-71
2023/08/07 02:50:01;;;;;;;1.63;1.52;;;23.40;69.40;;;;;;6114618;28;80474;-69
2023/08/07 02:53:01;;;;;;;1.55;1.30;;;23.30;69.10;;;;;;6123828;28;81135;-66
2023/08/07 02:56:02;;;;;;;1.30;1.20;;;23.30;69.10;;;;;;6117816;28;81851;-67
2023/08/07 02:59:02;;;;;;;1.55;1.33;;;23.30;69.10;;;;;;6124915;28;80624;-66
2023/08/07 03:02:03;;;;;;;4.10;2.00;;;23.30;69.00;;;;;;6118961;28;82856;-68
2023/08/07 03:05:03;;;;;;;1.30;1.20;;;23.30;69.00;;;;;;6129177;28;81344;-67
2023/08/07 03:08:04;;;;;;;2.67;1.27;;;23.30;69.00;;;;;;6123948;28;80981;-68
2023/08/07 03:11:04;;;;;;;1.58;1.38;;;23.30;69.00;;;;;;6110352;28;81914;-67
2023/08/07 03:14:05;;;;;;;2.50;1.40;;;23.30;69.00;;;;;;6121425;28;80658;-64
2023/08/07 03:17:05;;;;;;;3.13;1.42;;;23.30;69.00;;;;;;6116987;28;81224;-64
2023/08/07 03:20:06;;;;;;;2.70;1.45;;;23.30;69.00;;;;;;6120218;28;82197;-63
2023/08/07 03:23:06;;;;;;;1.50;1.40;;;23.30;69.00;;;;;;6116482;28;83583;-64
2023/08/07 03:26:07;;;;;;;1.60;1.50;;;23.30;68.90;;;;;;6135978;28;83212;-62
2023/08/07 03:29:08;;;;;;;3.88;1.67;;;23.30;69.00;;;;;;6133161;28;81268;-63
2023/08/07 03:32:09;;;;;;;1.95;1.48;;;23.20;68.90;;;;;;6133220;28;82465;-67
2023/08/07 03:35:11;;;;;;;2.47;1.33;;;23.20;69.00;;;;;;6151992;28;82323;-69
2023/08/07 03:38:12;;;;;;;2.97;1.90;;;23.20;69.10;;;;;;6140212;28;83398;-67
2023/08/07 03:41:12;;;;;;;6.28;1.67;;;23.20;69.00;;;;;;6128085;28;83597;-67
2023/08/07 03:44:15;;;;;;;4.57;1.63;;;23.30;68.90;;;;;;6112671;28;83317;-68
2023/08/07 03:47:16;;;;;;;3.83;1.58;;;23.20;68.90;;;;;;6121090;28;83398;-67
2023/08/07 03:50:17;;;;;;;4.07;1.65;;;23.20;68.90;;;;;;6100489;28;83483;-65
2023/08/07 03:53:18;;;;;;;1.40;1.30;;;23.30;68.80;;;;;;6103874;28;80586;-67
2023/08/07 03:56:22;;;;;;;2.13;1.90;;;23.30;68.70;;;;;;6127574;28;82893;-64
2023/08/07 03:59:22;;;;;;;3.05;1.73;;;23.20;68.70;;;;;;6103590;28;83294;-68
2023/08/07 04:02:23;;;;;;;4.30;1.77;;;23.30;68.70;;;;;;6119869;28;83501;-66
2023/08/07 04:05:24;;;;;;;1.92;1.50;;;23.20;68.80;;;;;;6115580;28;80741;-64
2023/08/07 04:08:25;;;;;;;4.03;1.70;;;23.20;69.00;;;;;;6109404;28;83568;-66
2023/08/07 04:11:26;;;;;;;3.17;1.85;;;23.30;68.80;;;;;;6113694;28;82479;-63
2023/08/07 04:14:26;;;;;;;3.97;1.80;;;23.30;69.00;;;;;;6108676;28;83423;-62
2023/08/07 04:17:27;;;;;;;7.30;1.95;;;23.30;69.00;;;;;;6107834;28;80795;-62
2023/08/07 04:20:29;;;;;;;3.80;2.13;;;23.30;69.00;;;;;;6111979;28;82276;-63
2023/08/07 04:23:31;;;;;;;3.17;1.85;;;23.30;68.90;;;;;;6099273;28;85109;-65
2023/08/07 04:26:31;;;;;;;4.50;2.00;;;23.30;68.90;;;;;;6112141;28;82246;-65
2023/08/07 04:29:32;;;;;;;3.72;1.58;;;23.30;68.90;;;;;;6110068;28;80896;-63
2023/08/07 04:32:33;;;;;;;2.65;1.63;;;23.30;68.90;;;;;;6110198;28;80839;-64
2023/08/07 04:35:34;;;;;;;1.65;1.38;;;23.30;69.10;;;;;;6114139;28;82411;-66
2023/08/07 04:38:34;;;;;;;3.67;1.50;;;23.30;69.20;;;;;;6131839;28;80705;-65
2023/08/07 04:41:35;;;;;;;2.30;1.48;;;23.40;69.60;;;;;;6111440;28;80622;-65
2023/08/07 04:44:35;;;;;;;1.40;1.30;;;23.40;69.80;;;;;;6109043;28;82813;-65
2023/08/07 04:47:36;;;;;;;6.20;1.70;;;23.40;69.50;;;;;;6109952;28;82380;-67
2023/08/07 04:50:36;;;;;;;6.25;1.60;;;23.40;69.60;;;;;;6103723;28;83517;-65
2023/08/07 04:53:37;;;;;;;3.05;1.30;;;23.40;69.80;;;;;;6118307;28;81069;-61
2023/08/07 04:56:37;;;;;;;3.95;1.40;;;23.40;70.20;;;;;;6112263;28;80406;-65
2023/08/07 04:59:38;;;;;;;2.50;1.42;;;23.40;69.80;;;;;;6120185;28;83247;-65
2023/08/07 05:02:38;;;;;;;3.60;1.55;;;23.40;69.90;;;;;;6116678;28;82130;-66
2023/08/07 05:05:39;;;;;;;4.40;1.30;;;23.40;69.60;;;;;;6126682;28;80589;-66
2023/08/07 05:08:39;;;;;;;4.35;1.30;;;23.40;69.60;;;;;;6124202;28;80914;-65
2023/08/07 05:11:40;;;;;;;8.30;1.63;;;23.40;69.70;;;;;;6127539;28;81487;-65
2023/08/07 05:14:40;;;;;;;1.83;1.00;;;23.40;69.70;;;;;;6126181;28;80419;-68
2023/08/07 05:17:41;;;;;;;4.30;1.33;;;23.40;69.80;;;;;;6125916;28;80340;-69
2023/08/07 05:20:41;;;;;;;2.08;1.50;;;23.30;69.90;;;;;;6123149;28;80303;-72
2023/08/07 05:23:42;;;;;;;1.52;1.20;;;23.40;70.10;;;;;;6130102;28;81853;-64
2023/08/07 05:26:42;;;;;;;1.58;1.20;;;23.30;70.00;;;;;;6118172;28;80630;-64
2023/08/07 05:29:43;;;;;;;2.25;1.17;;;23.40;70.30;;;;;;6120322;28;80363;-63
2023/08/07 05:32:44;;;;;;;2.08;1.10;;;23.30;70.50;;;;;;6131564;28;83319;-64
2023/08/07 05:35:44;;;;;;;3.58;1.30;;;23.30;70.10;;;;;;6135470;28;82586;-62
2023/08/07 05:38:45;;;;;;;4.68;1.10;;;23.40;69.90;;;;;;6119809;28;81407;-68
2023/08/07 05:41:45;;;;;;;3.45;1.30;;;23.40;70.10;;;;;;6125341;28;80432;-64
2023/08/07 05:44:46;;;;;;;1.67;0.90;;;23.40;69.90;;;;;;6134175;28;80119;-66
2023/08/07 05:47:46;;;;;;;5.20;0.95;;;23.40;69.80;;;;;;6128923;28;82364;-64
2023/08/07 05:50:47;;;;;;;0.80;0.80;;;23.50;69.80;;;;;;6138801;28;80536;-65
2023/08/07 05:53:49;;;;;;;3.28;1.02;;;23.40;69.80;;;;;;6143905;28;80227;-66
2023/08/07 05:56:49;;;;;;;4.25;2.45;;;23.50;69.90;;;;;;6131272;28;80997;-65
2023/08/07 05:59:50;;;;;;;7.40;1.77;;;23.40;70.20;;;;;;6131707;28;81216;-65
2023/08/07 06:02:50;;;;;;;5.13;2.20;;;23.40;69.30;;;;;;6135607;28;80886;-63
2023/08/07 06:05:51;;;;;;;4.72;2.42;;;23.40;69.40;;;;;;6116713;28;80927;-63
2023/08/07 06:08:51;;;;;;;6.57;2.40;;;23.40;69.40;;;;;;6124713;28;80854;-66
2023/08/07 06:11:52;;;;;;;4.43;1.77;;;23.40;69.30;;;;;;6124622;28;80513;-62
2023/08/07 06:14:52;;;;;;;3.15;1.88;;;23.50;69.80;;;;;;6127481;28;80658;-65
2023/08/07 06:17:53;;;;;;;2.15;1.33;;;23.50;70.10;;;;;;6116433;28;81590;-58
2023/08/07 06:20:53;;;;;;;2.97;1.48;;;23.50;70.60;;;;;;6117506;28;80678;-56
2023/08/07 06:23:54;;;;;;;4.65;1.33;;;23.60;70.20;;;;;;6122430;28;80517;-59
2023/08/07 06:26:54;;;;;;;7.00;1.30;;;23.60;69.90;;;;;;6122330;28;80937;-56
2023/08/07 06:29:55;;;;;;;4.60;1.13;;;23.60;70.00;;;;;;6127337;28;80516;-59
2023/08/07 06:32:56;;;;;;;2.00;1.10;;;23.60;70.00;;;;;;6123723;28;80834;-58
2023/08/07 06:35:56;;;;;;;5.15;1.15;;;23.60;69.50;;;;;;6124965;28;80604;-63
2023/08/07 06:38:57;;;;;;;1.80;1.02;;;23.60;69.70;;;;;;6098101;28;83224;-62
2023/08/07 06:42:00;;;;;;;2.03;0.93;;;23.60;69.50;;;;;;6118792;28;82993;-63
2023/08/07 06:45:05;;;;;;;1.98;0.85;;;23.60;69.20;;;;;;6128206;28;83381;-61
2023/08/07 06:48:05;;;;;;;4.47;1.10;;;23.60;68.50;;;;;;6105780;28;81306;-65
2023/08/07 06:51:06;;;;;;;1.52;0.82;;;23.60;68.70;;;;;;6114980;28;85506;-63
2023/08/07 06:54:06;;;;;;;7.00;1.00;;;23.60;68.50;;;;;;6112941;28;80679;-63
2023/08/07 06:57:07;;;;;;;3.92;1.55;;;23.60;68.50;;;;;;6117882;28;82139;-65
2023/08/07 07:00:07;;;;;;;2.97;2.17;;;23.70;68.40;;;;;;6118004;28;81151;-65
2023/08/07 07:03:09;;;;;;;3.17;1.63;;;23.70;68.40;;;;;;6109917;28;84935;-66
2023/08/07 07:06:10;;;;;;;4.15;1.83;;;23.70;68.50;;;;;;6109403;28;83621;-65
2023/08/07 07:09:10;;;;;;;1.98;1.48;;;23.70;68.50;;;;;;6116914;28;80028;-67
2023/08/07 07:12:11;;;;;;;2.33;1.63;;;23.70;68.70;;;;;;6123662;28;80477;-61
2023/08/07 07:15:11;;;;;;;5.15;1.50;;;23.70;68.90;;;;;;6136648;28;81045;-54
2023/08/07 07:18:12;;;;;;;1.92;1.10;;;23.70;69.20;;;;;;6118818;28;80784;-59
2023/08/07 07:21:13;;;;;;;3.05;1.00;;;23.70;69.30;;;;;;6126406;28;80662;-59
2023/08/07 07:24:14;;;;;;;2.45;1.20;;;23.70;69.70;;;;;;6125724;28;81026;-60
2023/08/07 07:27:14;;;;;;;0.93;0.90;;;23.80;69.70;;;;;;6130145;28;80614;-58
2023/08/07 07:30:15;;;;;;;2.30;1.48;;;23.80;69.50;;;;;;6126973;28;80455;-58
2023/08/07 07:33:15;;;;;;;6.43;1.40;;;23.80;69.70;;;;;;6126065;28;81172;-55
2023/08/07 07:36:16;;;;;;;0.88;0.70;;;23.80;70.70;;;;;;6110376;28;80594;-60
2023/08/07 07:39:17;;;;;;;2.25;1.20;;;23.70;68.60;;;;;;6119271;28;80738;-55
2023/08/07 07:42:17;;;;;;;1.10;0.98;;;23.70;69.00;;;;;;6117031;28;80929;-59
2023/08/07 07:45:18;;;;;;;3.85;1.00;;;23.70;68.30;;;;;;6116997;28;83572;-56
2023/08/07 07:48:18;;;;;;;1.15;1.00;;;23.70;68.40;;;;;;6117659;28;81024;-58
2023/08/07 07:51:19;;;;;;;1.85;1.02;;;23.70;68.40;;;;;;6118314;28;80700;-52
2023/08/07 07:54:19;;;;;;;2.03;1.00;;;23.70;68.10;;;;;;6119321;28;80223;-55
2023/08/07 07:57:20;;;;;;;6.88;0.90;;;23.70;67.80;;;;;;6120746;28;80603;-55
2023/08/07 08:00:22;;;;;;;1.30;0.85;;;23.60;67.80;;;;;;6119499;28;80902;-56
2023/08/07 08:03:23;;;;;;;0.93;0.73;;;23.60;68.00;;;;;;6123913;28;81565;-54
2023/08/07 08:06:24;;;;;;;1.00;0.90;;;23.60;68.00;;;;;;6108966;28;80469;-53
2023/08/07 08:09:25;;;;;;;3.67;0.98;;;23.60;68.00;;;;;;6123171;28;80631;-71
2023/08/07 08:12:25;;;;;;;8.40;0.93;;;23.60;67.80;;;;;;6112054;28;81507;-68
2023/08/07 08:15:26;;;;;;;1.25;0.82;;;23.60;67.70;;;;;;6117879;28;80688;-68
2023/08/07 08:18:26;;;;;;;1.00;0.73;;;23.60;67.50;;;;;;6116115;28;83205;-69
2023/08/07 08:21:27;;;;;;;3.20;1.30;;;23.60;67.50;;;;;;6136256;28;81283;-68
2023/08/07 08:24:27;;;;;;;1.95;0.70;;;23.60;67.00;;;;;;6127523;28;80779;-68
2023/08/07 08:27:28;;;;;;;4.80;1.25;;;23.60;66.80;;;;;;6145186;28;81418;-65
2023/08/07 08:30:28;;;;;;;1.95;0.60;;;23.70;67.30;;;;;;6123881;28;81518;-71
2023/08/07 08:33:29;;;;;;;12.82;1.33;;;23.70;67.30;;;;;;6126098;28;81149;-69
2023/08/07 08:36:30;;;;;;;4.70;0.93;;;23.70;67.10;;;;;;6131296;28;81684;-68
2023/08/07 08:39:30;;;;;;;0.60;0.60;;;23.70;67.20;;;;;;6126411;28;81554;-68
2023/08/07 08:42:31;;;;;;;1.33;0.82;;;23.60;66.30;;;;;;6102118;28;80138;-71
2023/08/07 08:45:37;;;;;;;1.30;0.70;;;23.30;66.10;;;;;;6114302;28;80493;-67
2023/08/07 08:48:38;;;;;;;0.77;0.77;;;23.30;66.70;;;;;;6120460;28;81384;-66
2023/08/07 08:51:38;;;;;;;1.25;0.70;;;23.40;66.30;;;;;;6130051;28;80999;-67
2023/08/07 08:54:39;;;;;;;0.63;0.60;;;23.20;65.90;;;;;;6123462;28;82255;-66
2023/08/07 08:57:40;;;;;;;0.70;0.60;;;22.80;65.40;;;;;;6119213;28;84090;-68
2023/08/07 09:00:40;;;;;;;1.10;0.60;;;22.40;65.70;;;;;;6125735;28;81435;-69
2023/08/07 09:03:41;;;;;;;0.60;0.57;;;22.40;67.80;;;;;;6123429;28;83256;-54
2023/08/07 09:06:41;;;;;;;1.55;0.70;;;22.50;66.40;;;;;;6122430;28;83525;-52
2023/08/07 09:09:42;;;;;;;1.80;0.50;;;22.30;66.60;;;;;;6105068;28;86726;-49
2023/08/07 09:12:42;;;;;;;1.65;0.77;;;22.40;68.30;;;;;;6096680;28;82403;-54
2023/08/07 09:15:47;;;;;;;0.65;0.60;;;22.50;67.60;;;;;;6118908;28;80430;-54
2023/08/07 09:18:50;;;;;;;0.77;0.70;;;22.40;67.40;;;;;;6120843;28;80830;-53
2023/08/07 09:21:50;;;;;;;2.35;0.70;;;22.30;67.40;;;;;;6124973;28;81685;-56
2023/08/07 09:24:50;;;;;;;1.38;0.85;;;22.40;67.40;;;;;;6127647;28;81247;-55
2023/08/07 09:27:51;;;;;;;0.88;0.70;;;22.60;67.10;;;;;;6126540;28;80300;-54
2023/08/07 09:30:51;;;;;;;1.00;0.75;;;22.70;66.50;;;;;;6119336;28;80513;-54
2023/08/07 09:33:52;;;;;;;1.13;0.60;;;22.70;65.90;;;;;;6120358;28;80918;-53
2023/08/07 09:36:52;;;;;;;0.85;0.75;;;22.70;65.70;;;;;;6119433;28;81058;-52
2023/08/07 09:39:53;;;;;;;0.88;0.70;;;22.80;65.80;;;;;;6101451;28;83369;-66
2023/08/07 09:42:54;;;;;;;0.60;0.50;;;22.70;64.80;;;;;;6104733;28;81024;-66
2023/08/07 09:45:55;;;;;;;1.02;0.68;;;22.70;64.50;;;;;;6094038;28;85372;-64
2023/08/07 09:48:55;;;;;;;0.65;0.55;;;22.60;65.10;;;;;;6131914;28;80412;-68
2023/08/07 09:51:56;;;;;;;0.50;0.50;;;22.50;65.10;;;;;;6132680;28;81007;-65
2023/08/07 09:54:57;;;;;;;1.35;0.60;;;22.50;65.50;;;;;;6134632;28;80656;-64
2023/08/07 09:57:57;;;;;;;2.05;0.63;;;22.50;65.40;;;;;;6121522;28;80830;-73
2023/08/07 10:00:59;;;;;;;1.50;0.77;;;22.50;64.60;;;;;;6129077;28;81132;-72
2023/08/07 10:03:59;;;;;;;1.08;0.70;;;22.50;65.20;;;;;;6123731;28;80984;-69
2023/08/07 10:07:00;;;;;;;2.83;0.60;;;22.70;64.90;;;;;;6115325;28;80492;-70
2023/08/07 10:10:00;;;;;;;1.73;0.65;;;22.60;65.20;;;;;;6118983;28;85503;-65
2023/08/07 10:13:01;;;;;;;0.90;0.70;;;22.80;64.80;;;;;;6111321;28;80531;-67
2023/08/07 10:16:01;;;;;;;3.30;0.60;;;22.60;64.90;;;;;;6110324;28;82140;-64
2023/08/07 10:19:02;;;;;;;0.65;0.65;;;22.60;65.30;;;;;;6116559;28;81463;-64
2023/08/07 10:22:03;;;;;;;2.15;0.70;;;22.60;65.10;;;;;;6115290;28;81276;-62
2023/08/07 10:25:04;;;;;;;0.88;0.85;;;22.70;65.60;;;;;;6113025;28;80990;-61
2023/08/07 10:28:04;;;;;;;0.50;0.50;;;22.80;65.50;;;;;;6115870;28;81513;-64
2023/08/07 10:31:05;;;;;;;2.90;0.90;;;22.80;65.90;;;;;;6116673;28;82590;-66
2023/08/07 10:34:05;;;;;;;0.65;0.60;;;23.00;66.80;;;;;;6101855;28;82969;-64
2023/08/07 10:37:06;;;;;;;1.77;0.80;;;23.20;66.60;;;;;;6108084;28;84464;-52
2023/08/07 10:40:09;;;;;;;2.10;0.90;;;23.00;65.40;;;;;;6110195;28;83217;-51
2023/08/07 10:43:10;;;;;;;0.63;0.63;;;23.10;65.70;;;;;;6104733;28;82905;-50
2023/08/07 10:46:10;;;;;;;1.48;0.70;;;23.00;65.30;;;;;;6112257;28;81475;-49
2023/08/07 10:49:10;;;;;;;1.92;0.80;;;23.00;64.80;;;;;;6108861;28;81105;-49
2023/08/07 10:52:11;;;;;;;2.60;1.00;;;23.10;65.40;;;;;;6105094;28;81054;-50
2023/08/07 10:55:12;;;;;;;3.22;0.90;;;23.10;65.30;;;;;;6117600;28;81581;-56
2023/08/07 10:58:12;;;;;;;1.88;0.77;;;23.10;65.30;;;;;;6126727;28;83526;-56
2023/08/07 11:01:13;;;;;;;0.77;0.70;;;23.20;65.10;;;;;;6122745;28;81257;-55
2023/08/07 11:04:13;;;;;;;0.70;0.70;;;23.10;64.70;;;;;;6127724;28;82657;-56
2023/08/07 11:07:14;;;;;;;0.60;0.60;;;23.10;65.20;;;;;;6119930;28;81552;-54
2023/08/07 11:10:17;;;;;;;2.05;0.88;;;23.20;65.80;;;;;;6128626;28;82496;-54
2023/08/07 11:13:18;;;;;;;1.40;1.30;;;23.20;65.80;;;;;;6125254;28;82493;-54
2023/08/07 11:16:20;;;;;;;0.80;0.80;;;23.30;65.60;;;;;;6128128;28;81943;-53
2023/08/07 11:19:21;;;;;;;3.47;1.38;;;23.20;65.60;;;;;;6123387;28;82648;-55
2023/08/07 11:22:21;;;;;;;0.88;0.88;;;23.20;65.30;;;;;;6134386;28;81618;-57
2023/08/07 11:25:23;;;;;;;0.70;0.70;;;23.20;65.40;;;;;;6127555;28;80430;-56
2023/08/07 11:28:24;;;;;;;1.98;1.00;;;23.30;65.40;;;;;;6128133;28;81869;-58
2023/08/07 11:31:25;;;;;;;2.10;0.98;;;23.30;66.10;;;;;;6131710;28;81268;-48
2023/08/07 11:34:25;;;;;;;0.80;0.80;;;23.00;65.30;;;;;;6126342;28;81981;-48
2023/08/07 11:37:26;;;;;;;0.75;0.75;;;22.90;65.90;;;;;;6132121;28;81982;-53
2023/08/07 11:40:26;;;;;;;1.65;0.80;;;23.10;66.20;;;;;;6120056;28;84462;-50
2023/08/07 11:43:27;;;;;;;1.42;0.85;;;23.20;66.10;;;;;;6129327;28;81334;-50
2023/08/07 11:46:27;;;;;;;2.40;0.70;;;23.20;66.10;;;;;;6127327;28;81648;-53
2023/08/07 11:49:28;;;;;;;2.03;0.85;;;23.20;66.10;;;;;;6129235;28;81905;-67
2023/08/07 11:52:29;;;;;;;4.38;0.90;;;23.30;65.60;;;;;;6132301;28;82110;-68
2023/08/07 11:55:30;;;;;;;0.82;0.80;;;23.20;66.00;;;;;;6127949;28;80918;-69
2023/08/07 11:58:30;;;;;;;1.95;1.00;;;23.30;65.70;;;;;;6122497;28;81719;-68
2023/08/07 12:01:31;;;;;;;3.55;1.00;;;23.30;65.70;;;;;;6109777;28;81104;-69
2023/08/07 12:04:31;;;;;;;1.33;0.93;;;23.40;65.90;;;;;;6104634;28;83672;-65
2023/08/07 12:07:32;;;;;;;1.67;0.85;;;23.30;66.70;;;;;;6126980;28;81832;-70
2023/08/07 12:10:32;;;;;;;1.13;0.90;;;23.00;67.10;;;;;;6134302;28;81466;-73
2023/08/07 12:13:36;;;;;;;1.40;0.90;;;22.90;68.70;;;;;;6113822;28;82298;-69
2023/08/07 12:16:36;;;;;;;18.75;1.30;;;23.00;69.00;;;;;;6113269;28;82218;-70
2023/08/07 12:19:37;;;;;;;3.80;1.13;;;23.00;69.00;;;;;;6126746;28;82370;-73
2023/08/07 12:22:38;;;;;;;1.10;1.00;;;22.90;69.20;;;;;;6133669;28;80672;-70
2023/08/07 12:25:38;;;;;;;2.20;1.08;;;23.00;69.00;;;;;;6105960;28;81709;-72
2023/08/07 12:28:39;;;;;;;3.00;1.00;;;22.70;69.40;;;;;;6115225;28;83754;-71
2023/08/07 12:31:40;;;;;;;1.38;1.02;;;22.60;70.20;;;;;;6110445;28;82137;-71
2023/08/07 12:34:41;;;;;;;1.95;0.93;;;22.60;69.50;;;;;;6121875;28;80952;-69
2023/08/07 12:37:41;;;;;;;0.95;0.88;;;22.60;70.50;;;;;;6125401;28;81441;-66
2023/08/07 12:40:42;;;;;;;0.90;0.90;;;22.60;71.80;;;;;;6109489;28;81493;-65
2023/08/07 12:43:42;;;;;;;1.42;1.30;;;22.80;71.10;;;;;;6117783;28;82599;-68
2023/08/07 12:46:43;;;;;;;1.75;1.00;;;22.90;70.10;;;;;;6124933;28;82128;-68
2023/08/07 12:49:45;;;;;;;2.28;1.17;;;23.10;69.30;;;;;;6130196;28;81053;-65
2023/08/07 12:52:46;;;;;;;1.85;0.95;;;23.10;68.20;;;;;;6132508;28;82188;-65
2023/08/07 12:55:47;;;;;;;3.08;1.20;;;23.10;67.80;;;;;;6127810;28;82157;-66
2023/08/07 12:58:47;;;;;;;5.22;1.48;;;23.10;67.90;;;;;;6125420;28;81731;-64
2023/08/07 13:01:48;;;;;;;6.65;2.30;;;23.20;68.40;;;;;;6132157;28;81991;-64
2023/08/07 13:04:48;;;;;;;6.07;1.83;;;23.20;68.60;;;;;;6129294;28;81146;-65
2023/08/07 13:07:49;;;;;;;4.38;2.00;;;23.30;68.60;;;;;;6150044;28;81572;-66
2023/08/07 13:10:49;;;;;;;5.28;1.75;;;23.30;69.00;;;;;;6131962;28;81095;-65
2023/08/07 13:13:50;;;;;;;3.20;1.77;;;23.20;69.50;;;;;;6118216;28;84499;-65
2023/08/07 13:16:50;;;;;;;6.78;2.10;;;23.10;69.30;;;;;;6127406;28;80829;-65
2023/08/07 13:19:51;;;;;;;4.93;2.58;;;23.10;70.20;;;;;;6126362;28;80043;-68
2023/08/07 13:22:52;;;;;;;5.55;2.63;;;23.00;69.80;;;;;;6117607;28;80519;-65
2023/08/07 13:25:52;;;;;;;4.70;3.17;;;23.00;70.80;;;;;;6121905;28;83289;-65
2023/08/07 13:28:53;;;;;;;6.25;3.25;;;23.00;71.00;;;;;;6116283;28;80378;-63
2023/08/07 13:31:53;;;;;;;7.85;3.70;;;23.10;70.60;;;;;;6116422;28;80290;-68
2023/08/07 13:34:54;;;;;;;8.85;3.60;;;22.90;71.70;;;;;;6120984;28;81203;-63
2023/08/07 13:37:54;;;;;;;5.97;3.08;;;22.90;72.20;;;;;;6128760;28;81313;-66
2023/08/07 13:40:55;;;;;;;4.55;2.83;;;22.90;72.40;;;;;;6140887;28;81054;-53
2023/08/07 13:43:55;;;;;;;5.10;3.10;;;22.80;72.30;;;;;;6124436;28;80927;-52
2023/08/07 13:46:56;;;;;;;4.68;2.72;;;22.90;72.70;;;;;;6126567;28;81582;-49
2023/08/07 13:49:58;;;;;;;5.50;3.05;;;23.00;72.30;;;;;;6115788;28;80769;-50
2023/08/07 13:52:58;;;;;;;39.60;21.00;;;22.60;73.00;;;;;;6116716;28;80500;-52
2023/08/07 13:55:59;;;;;;;86.53;46.05;;;22.70;72.90;;;;;;6122931;28;83267;-50
2023/08/07 13:59:00;;;;;;;85.32;48.83;;;22.80;73.00;;;;;;6146937;28;90742;-59
2023/08/07 14:02:00;;;;;;;120.50;60.40;;;22.70;72.70;;;;;;6125218;28;82918;-58
2023/08/07 14:05:01;;;;;;;122.05;64.95;;;22.70;74.40;;;;;;6113763;28;83477;-59
2023/08/07 14:08:02;;;;;;;158.00;83.20;;;22.70;73.20;;;;;;6125046;28;86301;-58
2023/08/07 14:11:03;;;;;;;173.48;90.47;;;22.90;73.80;;;;;;6124780;28;82825;-59
2023/08/07 14:14:03;;;;;;;171.07;89.63;;;22.90;73.00;;;;;;6124709;28;83263;-57
2023/08/07 14:17:04;;;;;;;147.82;79.90;;;23.10;72.00;;;;;;6124514;28;90845;-58
2023/08/07 14:20:04;;;;;;;93.10;50.63;;;23.10;71.60;;;;;;6121577;28;84649;-58
2023/08/07 14:23:05;;;;;;;90.20;41.83;;;22.90;69.60;;;;;;6123976;28;83517;-58
2023/08/07 14:26:05;;;;;;;47.35;20.90;;;22.70;71.00;;;;;;6116062;28;83345;-56
2023/08/07 14:29:06;;;;;;;39.05;18.27;;;22.60;70.80;;;;;;6116012;28;82988;-56
2023/08/07 14:32:06;;;;;;;33.92;14.90;;;22.60;70.60;;;;;;6119183;28;83235;-54
2023/08/07 14:35:07;;;;;;;26.17;13.15;;;22.50;71.50;;;;;;6116139;28;83169;-51
2023/08/07 14:38:07;;;;;;;15.20;7.13;;;22.70;70.70;;;;;;6121171;28;83011;-51
2023/08/07 14:41:08;;;;;;;28.50;9.98;;;22.60;69.50;;;;;;6127257;28;83658;-56
2023/08/07 14:44:08;;;;;;;13.38;6.68;;;22.70;69.90;;;;;;6120418;28;83578;-57
2023/08/07 14:47:09;;;;;;;9.90;4.80;;;22.70;68.70;;;;;;6116079;28;82949;-54
2023/08/07 14:50:09;;;;;;;10.73;5.75;;;22.50;67.90;;;;;;6119922;28;81110;-56
2023/08/07 14:53:10;;;;;;;7.68;4.18;;;22.70;69.80;;;;;;6109001;28;82628;-67
2023/08/07 14:56:11;;;;;;;11.70;4.72;;;22.80;68.90;;;;;;6114390;28;84984;-64
2023/08/07 14:59:11;;;;;;;6.50;3.58;;;22.90;68.50;;;;;;6111125;28;80661;-65
2023/08/07 15:02:12;;;;;;;4.18;2.60;;;22.90;68.10;;;;;;6105558;28;81529;-69
2023/08/07 15:05:12;;;;;;;4.40;2.70;;;22.90;67.20;;;;;;6139558;28;80296;-69
2023/08/07 15:08:13;;;;;;;5.53;3.10;;;22.60;67.50;;;;;;6124856;28;81190;-68
2023/08/07 15:11:13;;;;;;;7.13;3.40;;;22.70;68.60;;;;;;6128547;28;80503;-53
2023/08/07 15:14:14;;;;;;;4.57;2.53;;;22.90;68.40;;;;;;6118378;28;80788;-55
2023/08/07 15:17:14;;;;;;;4.50;2.45;;;22.50;68.30;;;;;;6118284;28;84138;-53
2023/08/07 15:20:15;;;;;;;2.80;1.92;;;22.60;68.60;;;;;;6125515;28;81935;-55
2023/08/07 15:23:16;;;;;;;7.18;2.53;;;22.20;67.60;;;;;;6125524;28;80903;-53
2023/08/07 15:26:16;;;;;;;5.32;2.17;;;22.30;68.60;;;;;;6129372;28;83078;-55
2023/08/07 15:29:17;;;;;;;3.42;2.20;;;22.40;68.30;;;;;;6128755;28;82347;-52
2023/08/07 15:32:21;;;;;;;4.70;2.28;;;22.40;67.70;;;;;;6131994;28;80578;-50
2023/08/07 15:35:21;;;;;;;3.10;2.35;;;22.50;67.70;;;;;;6128635;28;81776;-49
2023/08/07 15:38:22;;;;;;;8.57;2.60;;;22.50;67.20;;;;;;6126448;28;85460;-54